EST,Max TemperatureF,Mean TemperatureF,Min TemperatureF,Max Dew PointF,MeanDew PointF,Min DewpointF,Max Humidity, Mean Humidity, Min Humidity, Max Sea Level PressureIn, Mean Sea Level PressureIn, Min Sea Level PressureIn, Max VisibilityMiles, Mean VisibilityMiles, Min VisibilityMiles, Max Wind SpeedMPH, Mean Wind SpeedMPH, Max Gust SpeedMPH,PrecipitationIn, CloudCover, Events, WindDirDegrees
2012-11-1,62,53,43,40,38,37,76,59,42,29.81,29.75,29.70,10,10,10,18,9,25,0.00,4,,251
2012-11-2,62,51,39,39,35,33,79,57,34,29.94,29.85,29.79,10,10,10,17,8,23,0.00,2,,268
2012-11-3,57,46,35,36,34,31,85,63,41,30.09,30.03,29.95,10,10,10,20,6,24,0.00,1,,308
2012-11-4,52,46,39,41,38,36,83,71,59,30.10,30.05,29.99,10,10,10,12,5,15,T,6,Rain,10
2012-11-5,56,49,42,40,35,31,76,57,38,30.14,30.07,29.99,10,10,10,17,11,22,T,1,,357
2012-11-6,54,49,43,46,41,34,80,72,63,30.12,29.99,29.82,10,10,9,21,13,45,0.06,6,Rain,353
2012-11-7,50,48,45,46,40,36,86,76,65,29.88,29.82,29.78,10,10,3,24,15,30,0.16,8,Rain,327
2012-11-8,61,51,41,36,28,12,76,47,17,30.05,29.94,29.88,10,10,10,22,11,26,0.00,3,,291
2012-11-9,62,50,37,39,33,25,85,61,36,30.27,30.19,30.06,10,10,10,16,6,23,0.00,0,,315
2012-11-10,70,54,37,42,38,35,92,60,28,30.42,30.35,30.27,10,10,7,13,4,15,0.00,0,,170
2012-11-11,73,57,41,52,46,37,89,60,31,30.52,30.47,30.43,10,6,0,10,3,14,0.00,0,Fog,147
2012-11-12,77,63,49,61,54,46,93,74,54,30.48,30.39,30.22,10,5,0,14,6,21,T,1,Fog-Rain,127
2012-11-13,70,59,47,62,48,38,90,78,66,30.39,30.30,30.19,10,9,2,23,12,30,0.02,7,Rain,359
2012-11-14,53,48,43,41,38,35,71,64,56,30.44,30.40,30.37,10,10,10,21,14,24,0.00,7,,358
2012-11-15,60,53,45,48,44,36,83,73,62,30.33,30.26,30.22,10,10,8,20,12,25,0.07,7,Rain,2
2012-11-16,57,52,47,46,40,34,86,70,54,30.37,30.29,30.22,10,10,10,18,12,23,0.01,5,Rain,357
2012-11-17,59,52,45,49,44,35,77,69,61,30.45,30.43,30.36,10,10,10,24,14,31,0.00,5,,11
2012-11-18,62,58,54,52,50,49,83,74,64,30.41,30.36,30.30,10,10,10,32,19,40,T,6,,21
2012-11-19,59,56,53,52,50,48,86,82,77,30.27,30.20,30.12,10,8,4,25,18,33,T,8,Rain,359
2012-11-20,59,55,51,50,47,43,89,76,62,30.12,30.09,30.06,10,9,4,20,11,24,0.00,7,,3
2012-11-21,61,54,47,47,44,40,86,72,57,30.15,30.10,30.06,10,10,10,18,12,23,0.00,3,,7
2012-11-22,62,55,47,47,44,41,80,69,57,30.17,30.14,30.10,10,10,10,21,12,25,0.00,2,,354
2012-11-23,66,52,38,46,41,36,89,63,37,30.12,30.03,29.81,10,6,1,12,6,14,0.00,1,,263
2012-11-24,56,44,31,41,27,22,71,51,30,30.09,29.95,29.81,10,10,10,23,10,29,0.00,1,,306
2012-11-25,51,39,27,28,23,19,75,53,30,30.17,30.10,30.04,10,10,10,17,7,21,0.00,0,,247
2012-11-26,61,48,35,40,32,27,83,55,27,30.23,30.17,30.08,10,10,10,12,5,15,0.00,0,,161
2012-11-27,65,54,42,45,42,38,86,63,39,30.22,30.17,30.09,10,9,5,15,8,18,0.04,5,Rain,245
2012-11-28,52,42,32,41,33,28,83,62,41,30.39,30.28,30.20,10,10,7,20,8,26,0.00,3,,330
2012-11-29,55,42,28,36,31,25,92,67,41,30.49,30.43,30.37,10,9,5,12,3,15,0.00,0,,169
2012-11-30,61,46,31,41,36,31,96,68,39,30.44,30.38,30.32,10,7,0,9,3,12,0.00,0,Fog,181